KMYF/MYF METAR and TAF weather

Enter ICAO airport designator
Station Type Date Time Source
KMYF METAR 2020/10/29 16:53 UTC NOAA

KMYF 291653Z 00000KT 10SM CLR 23/03 A3005 RMK AO2 SLP174 T02280033


Station Type Date Time Source
KMYF Decoded METAR 2020/10/29 16:53 UTC NOAA

SAN DIEGO MONTGOMERY FIELD, CA, United States (KMYF) 32-49N 117-08W 136M
Oct 29, 2020 - 12:53 PM EDT / 2020.10.29 1653 UTC
Wind: Calm:0
Visibility: 10 mile(s):0
Sky conditions: clear
Temperature: 73.0 F (22.8 C)
Dew Point: 37.9 F (3.3 C)
Relative Humidity: 27%
Pressure (altimeter): 30.05 in. Hg (1017 hPa)
ob: KMYF 291653Z 00000KT 10SM CLR 23/03 A3005 RMK AO2 SLP174 T02280033
cycle: 17

Station Type Date Time Source
KMYF TAF UTC NOAA

Error!

Example: see airport list